sensor_id;sensor_type;location;lat;lon;timestamp;P1;durP1;ratioP1;P2;durP2;ratioP2
70985;SDS011;58645;43.068;25.610;2023-05-08T00:01:37;9.40;;;4.38;;
70985;SDS011;58645;43.068;25.610;2023-05-08T00:04:03;9.68;;;5.93;;
70985;SDS011;58645;43.068;25.610;2023-05-08T00:06:29;11.73;;;6.72;;
70985;SDS011;58645;43.068;25.610;2023-05-08T00:08:55;12.05;;;8.63;;
70985;SDS011;58645;43.068;25.610;2023-05-08T00:11:20;13.90;;;9.35;;
70985;SDS011;58645;43.068;25.610;2023-05-08T00:13:46;12.00;;;9.00;;
70985;SDS011;58645;43.068;25.610;2023-05-08T00:16:12;10.85;;;6.80;;
70985;SDS011;58645;43.068;25.610;2023-05-08T00:18:38;6.68;;;4.72;;
70985;SDS011;58645;43.068;25.610;2023-05-08T00:21:04;4.55;;;2.88;;
70985;SDS011;58645;43.068;25.610;2023-05-08T00:23:30;8.07;;;3.17;;
70985;SDS011;58645;43.068;25.610;2023-05-08T00:25:56;6.80;;;3.20;;
70985;SDS011;58645;43.068;25.610;2023-05-08T00:28:22;6.18;;;3.78;;
70985;SDS011;58645;43.068;25.610;2023-05-08T00:30:48;7.03;;;3.42;;
70985;SDS011;58645;43.068;25.610;2023-05-08T00:33:14;7.18;;;3.45;;
70985;SDS011;58645;43.068;25.610;2023-05-08T00:35:40;7.68;;;4.03;;
70985;SDS011;58645;43.068;25.610;2023-05-08T00:40:33;10.13;;;5.32;;
70985;SDS011;58645;43.068;25.610;2023-05-08T00:42:58;6.82;;;3.92;;
70985;SDS011;58645;43.068;25.610;2023-05-08T00:45:26;7.78;;;3.70;;
70985;SDS011;58645;43.068;25.610;2023-05-08T00:47:58;13.40;;;5.35;;
70985;SDS011;58645;43.068;25.610;2023-05-08T00:50:24;11.63;;;4.50;;
70985;SDS011;58645;43.068;25.610;2023-05-08T00:52:51;8.65;;;3.83;;
70985;SDS011;58645;43.068;25.610;2023-05-08T00:55:16;6.55;;;3.78;;
70985;SDS011;58645;43.068;25.610;2023-05-08T00:57:43;6.50;;;3.65;;
70985;SDS011;58645;43.068;25.610;2023-05-08T01:00:11;9.27;;;4.40;;
70985;SDS011;58645;43.068;25.610;2023-05-08T01:02:39;7.85;;;4.50;;
70985;SDS011;58645;43.068;25.610;2023-05-08T01:05:05;8.15;;;3.70;;
70985;SDS011;58645;43.068;25.610;2023-05-08T01:07:31;9.48;;;4.50;;
70985;SDS011;58645;43.068;25.610;2023-05-08T01:09:57;10.68;;;4.88;;
70985;SDS011;58645;43.068;25.610;2023-05-08T01:12:25;11.38;;;4.68;;
70985;SDS011;58645;43.068;25.610;2023-05-08T01:17:37;8.18;;;4.28;;
70985;SDS011;58645;43.068;25.610;2023-05-08T01:31:50;5.95;;;3.75;;
70985;SDS011;58645;43.068;25.610;2023-05-08T01:34:31;3.75;;;1.98;;
70985;SDS011;58645;43.068;25.610;2023-05-08T01:36:59;4.45;;;1.88;;
70985;SDS011;58645;43.068;25.610;2023-05-08T01:45:05;5.13;;;2.45;;
70985;SDS011;58645;43.068;25.610;2023-05-08T01:47:36;4.68;;;2.05;;
70985;SDS011;58645;43.068;25.610;2023-05-08T01:52:50;7.63;;;3.17;;
70985;SDS011;58645;43.068;25.610;2023-05-08T01:55:25;7.75;;;3.13;;
70985;SDS011;58645;43.068;25.610;2023-05-08T01:57:55;6.45;;;4.47;;
70985;SDS011;58645;43.068;25.610;2023-05-08T02:00:23;5.30;;;4.10;;
70985;SDS011;58645;43.068;25.610;2023-05-08T02:02:52;7.70;;;5.63;;
70985;SDS011;58645;43.068;25.610;2023-05-08T02:05:20;8.80;;;5.63;;
70985;SDS011;58645;43.068;25.610;2023-05-08T02:07:48;9.57;;;5.68;;
70985;SDS011;58645;43.068;25.610;2023-05-08T02:10:15;9.80;;;5.53;;
70985;SDS011;58645;43.068;25.610;2023-05-08T02:12:42;3.45;;;2.03;;
70985;SDS011;58645;43.068;25.610;2023-05-08T02:15:09;5.75;;;2.28;;
70985;SDS011;58645;43.068;25.610;2023-05-08T02:17:37;5.97;;;1.92;;
70985;SDS011;58645;43.068;25.610;2023-05-08T02:20:05;4.13;;;1.83;;
70985;SDS011;58645;43.068;25.610;2023-05-08T02:22:38;3.40;;;1.77;;
70985;SDS011;58645;43.068;25.610;2023-05-08T02:25:08;3.72;;;2.65;;
70985;SDS011;58645;43.068;25.610;2023-05-08T02:27:38;4.40;;;1.92;;
70985;SDS011;58645;43.068;25.610;2023-05-08T02:30:10;3.85;;;2.60;;
70985;SDS011;58645;43.068;25.610;2023-05-08T02:32:38;9.77;;;4.35;;
70985;SDS011;58645;43.068;25.610;2023-05-08T02:35:12;8.93;;;4.90;;
70985;SDS011;58645;43.068;25.610;2023-05-08T02:37:42;7.03;;;3.55;;
70985;SDS011;58645;43.068;25.610;2023-05-08T02:40:09;9.02;;;5.18;;
70985;SDS011;58645;43.068;25.610;2023-05-08T02:42:37;7.28;;;3.88;;
70985;SDS011;58645;43.068;25.610;2023-05-08T02:45:03;8.90;;;4.13;;
70985;SDS011;58645;43.068;25.610;2023-05-08T02:47:36;7.35;;;4.47;;
70985;SDS011;58645;43.068;25.610;2023-05-08T02:53:34;13.15;;;6.97;;
70985;SDS011;58645;43.068;25.610;2023-05-08T02:56:22;11.77;;;8.13;;
70985;SDS011;58645;43.068;25.610;2023-05-08T02:58:58;8.20;;;6.15;;
70985;SDS011;58645;43.068;25.610;2023-05-08T03:01:43;10.00;;;6.28;;
70985;SDS011;58645;43.068;25.610;2023-05-08T03:04:15;10.35;;;6.95;;
70985;SDS011;58645;43.068;25.610;2023-05-08T03:07:04;11.30;;;5.03;;
70985;SDS011;58645;43.068;25.610;2023-05-08T03:09:32;11.40;;;7.28;;
70985;SDS011;58645;43.068;25.610;2023-05-08T03:12:07;17.60;;;8.57;;
70985;SDS011;58645;43.068;25.610;2023-05-08T03:14:41;12.55;;;8.18;;
70985;SDS011;58645;43.068;25.610;2023-05-08T03:17:12;10.75;;;5.97;;
70985;SDS011;58645;43.068;25.610;2023-05-08T03:19:42;9.52;;;4.20;;
70985;SDS011;58645;43.068;25.610;2023-05-08T03:22:11;10.10;;;4.45;;
70985;SDS011;58645;43.068;25.610;2023-05-08T03:24:39;15.38;;;7.65;;
70985;SDS011;58645;43.068;25.610;2023-05-08T03:27:08;4.55;;;3.05;;
70985;SDS011;58645;43.068;25.610;2023-05-08T03:29:35;4.13;;;2.25;;
70985;SDS011;58645;43.068;25.610;2023-05-08T03:32:02;3.78;;;1.98;;
70985;SDS011;58645;43.068;25.610;2023-05-08T03:34:28;4.95;;;2.33;;
70985;SDS011;58645;43.068;25.610;2023-05-08T03:36:55;4.43;;;2.92;;
70985;SDS011;58645;43.068;25.610;2023-05-08T03:39:21;3.00;;;2.10;;
70985;SDS011;58645;43.068;25.610;2023-05-08T03:41:48;4.53;;;2.25;;
70985;SDS011;58645;43.068;25.610;2023-05-08T03:44:15;3.00;;;1.92;;
70985;SDS011;58645;43.068;25.610;2023-05-08T03:46:41;8.40;;;3.65;;
70985;SDS011;58645;43.068;25.610;2023-05-08T03:49:08;6.43;;;3.40;;
70985;SDS011;58645;43.068;25.610;2023-05-08T03:51:37;8.45;;;3.63;;
70985;SDS011;58645;43.068;25.610;2023-05-08T03:54:06;7.32;;;3.78;;
70985;SDS011;58645;43.068;25.610;2023-05-08T03:56:32;13.10;;;5.80;;
70985;SDS011;58645;43.068;25.610;2023-05-08T04:01:39;9.00;;;5.63;;
70985;SDS011;58645;43.068;25.610;2023-05-08T04:04:16;10.68;;;5.43;;
70985;SDS011;58645;43.068;25.610;2023-05-08T04:06:43;6.85;;;4.82;;
70985;SDS011;58645;43.068;25.610;2023-05-08T04:09:38;8.45;;;5.43;;
70985;SDS011;58645;43.068;25.610;2023-05-08T04:15:43;7.82;;;5.13;;
70985;SDS011;58645;43.068;25.610;2023-05-08T04:18:16;9.30;;;4.72;;
70985;SDS011;58645;43.068;25.610;2023-05-08T04:20:47;10.75;;;5.25;;
70985;SDS011;58645;43.068;25.610;2023-05-08T04:23:16;11.15;;;5.30;;
70985;SDS011;58645;43.068;25.610;2023-05-08T04:25:45;9.13;;;5.28;;
70985;SDS011;58645;43.068;25.610;2023-05-08T04:28:12;14.80;;;7.57;;
70985;SDS011;58645;43.068;25.610;2023-05-08T04:30:38;9.70;;;6.05;;
70985;SDS011;58645;43.068;25.610;2023-05-08T04:33:05;15.35;;;7.80;;
70985;SDS011;58645;43.068;25.610;2023-05-08T04:35:32;17.25;;;8.88;;
70985;SDS011;58645;43.068;25.610;2023-05-08T04:37:58;12.45;;;6.32;;
70985;SDS011;58645;43.068;25.610;2023-05-08T04:40:24;13.40;;;5.90;;
70985;SDS011;58645;43.068;25.610;2023-05-08T04:42:50;10.85;;;6.63;;
70985;SDS011;58645;43.068;25.610;2023-05-08T04:45:16;11.05;;;5.43;;
70985;SDS011;58645;43.068;25.610;2023-05-08T04:47:42;10.63;;;6.53;;
70985;SDS011;58645;43.068;25.610;2023-05-08T04:50:08;19.33;;;9.15;;
70985;SDS011;58645;43.068;25.610;2023-05-08T04:55:00;28.58;;;16.10;;
70985;SDS011;58645;43.068;25.610;2023-05-08T04:57:26;24.77;;;15.68;;
70985;SDS011;58645;43.068;25.610;2023-05-08T04:59:52;17.70;;;9.40;;
70985;SDS011;58645;43.068;25.610;2023-05-08T05:02:18;18.67;;;8.43;;
70985;SDS011;58645;43.068;25.610;2023-05-08T05:04:44;16.52;;;6.95;;
70985;SDS011;58645;43.068;25.610;2023-05-08T05:07:09;10.30;;;4.70;;
70985;SDS011;58645;43.068;25.610;2023-05-08T05:09:35;10.07;;;5.43;;
70985;SDS011;58645;43.068;25.610;2023-05-08T05:12:02;10.85;;;6.38;;
70985;SDS011;58645;43.068;25.610;2023-05-08T05:16:54;20.58;;;10.38;;
70985;SDS011;58645;43.068;25.610;2023-05-08T05:19:20;21.67;;;9.68;;
70985;SDS011;58645;43.068;25.610;2023-05-08T05:21:46;18.85;;;9.93;;
70985;SDS011;58645;43.068;25.610;2023-05-08T05:24:12;14.57;;;8.90;;
70985;SDS011;58645;43.068;25.610;2023-05-08T05:26:37;17.40;;;9.18;;
70985;SDS011;58645;43.068;25.610;2023-05-08T05:29:03;27.92;;;11.82;;
70985;SDS011;58645;43.068;25.610;2023-05-08T05:31:29;17.38;;;9.32;;
70985;SDS011;58645;43.068;25.610;2023-05-08T05:33:54;30.85;;;18.25;;
70985;SDS011;58645;43.068;25.610;2023-05-08T05:36:20;38.80;;;24.02;;
70985;SDS011;58645;43.068;25.610;2023-05-08T05:38:46;19.15;;;11.23;;
70985;SDS011;58645;43.068;25.610;2023-05-08T05:41:12;13.95;;;8.57;;
70985;SDS011;58645;43.068;25.610;2023-05-08T05:43:38;7.43;;;4.28;;
70985;SDS011;58645;43.068;25.610;2023-05-08T05:46:07;5.72;;;3.33;;
70985;SDS011;58645;43.068;25.610;2023-05-08T05:48:34;10.52;;;4.78;;
70985;SDS011;58645;43.068;25.610;2023-05-08T05:51:01;10.30;;;4.32;;
70985;SDS011;58645;43.068;25.610;2023-05-08T05:53:27;10.52;;;2.63;;
70985;SDS011;58645;43.068;25.610;2023-05-08T05:55:53;4.97;;;2.22;;
70985;SDS011;58645;43.068;25.610;2023-05-08T05:58:19;6.70;;;2.08;;
70985;SDS011;58645;43.068;25.610;2023-05-08T06:00:45;3.80;;;2.30;;
70985;SDS011;58645;43.068;25.610;2023-05-08T06:03:11;3.30;;;2.08;;
70985;SDS011;58645;43.068;25.610;2023-05-08T06:05:38;5.30;;;2.08;;
70985;SDS011;58645;43.068;25.610;2023-05-08T06:08:04;4.30;;;2.25;;
70985;SDS011;58645;43.068;25.610;2023-05-08T06:10:31;8.27;;;2.33;;
70985;SDS011;58645;43.068;25.610;2023-05-08T06:12:57;3.13;;;1.70;;
70985;SDS011;58645;43.068;25.610;2023-05-08T06:15:22;2.97;;;2.00;;
70985;SDS011;58645;43.068;25.610;2023-05-08T06:17:48;3.78;;;1.70;;
70985;SDS011;58645;43.068;25.610;2023-05-08T06:20:14;2.88;;;1.55;;
70985;SDS011;58645;43.068;25.610;2023-05-08T06:22:40;4.43;;;1.92;;
70985;SDS011;58645;43.068;25.610;2023-05-08T06:25:06;4.38;;;1.98;;
70985;SDS011;58645;43.068;25.610;2023-05-08T06:27:33;4.22;;;2.10;;
70985;SDS011;58645;43.068;25.610;2023-05-08T06:30:00;2.83;;;1.73;;
70985;SDS011;58645;43.068;25.610;2023-05-08T06:32:26;2.92;;;1.63;;
70985;SDS011;58645;43.068;25.610;2023-05-08T06:34:52;3.97;;;1.58;;
70985;SDS011;58645;43.068;25.610;2023-05-08T06:39:43;5.40;;;1.92;;
70985;SDS011;58645;43.068;25.610;2023-05-08T06:44:34;7.75;;;3.03;;
70985;SDS011;58645;43.068;25.610;2023-05-08T06:47:00;4.20;;;1.80;;
70985;SDS011;58645;43.068;25.610;2023-05-08T06:51:52;9.25;;;3.33;;
70985;SDS011;58645;43.068;25.610;2023-05-08T06:56:43;10.50;;;3.63;;
70985;SDS011;58645;43.068;25.610;2023-05-08T06:59:09;8.30;;;3.72;;
70985;SDS011;58645;43.068;25.610;2023-05-08T07:04:04;14.93;;;5.78;;
70985;SDS011;58645;43.068;25.610;2023-05-08T07:06:30;17.13;;;7.22;;
70985;SDS011;58645;43.068;25.610;2023-05-08T07:08:56;11.57;;;6.20;;
70985;SDS011;58645;43.068;25.610;2023-05-08T07:11:21;12.82;;;5.43;;
70985;SDS011;58645;43.068;25.610;2023-05-08T07:13:47;16.20;;;5.15;;
70985;SDS011;58645;43.068;25.610;2023-05-08T07:16:13;9.23;;;4.78;;
70985;SDS011;58645;43.068;25.610;2023-05-08T07:18:40;9.10;;;4.55;;
70985;SDS011;58645;43.068;25.610;2023-05-08T07:21:06;8.52;;;3.58;;
70985;SDS011;58645;43.068;25.610;2023-05-08T07:23:31;17.38;;;6.05;;
70985;SDS011;58645;43.068;25.610;2023-05-08T07:25:57;16.20;;;6.80;;
70985;SDS011;58645;43.068;25.610;2023-05-08T07:28:23;19.42;;;11.43;;
70985;SDS011;58645;43.068;25.610;2023-05-08T07:30:49;13.50;;;8.55;;
70985;SDS011;58645;43.068;25.610;2023-05-08T07:33:15;9.35;;;6.70;;
70985;SDS011;58645;43.068;25.610;2023-05-08T07:35:42;9.55;;;6.03;;
70985;SDS011;58645;43.068;25.610;2023-05-08T07:38:08;6.47;;;2.70;;
70985;SDS011;58645;43.068;25.610;2023-05-08T07:40:33;7.10;;;2.70;;
70985;SDS011;58645;43.068;25.610;2023-05-08T07:42:59;9.10;;;5.72;;
70985;SDS011;58645;43.068;25.610;2023-05-08T07:45:25;4.75;;;2.33;;
70985;SDS011;58645;43.068;25.610;2023-05-08T07:47:51;4.38;;;2.50;;
70985;SDS011;58645;43.068;25.610;2023-05-08T07:50:18;6.35;;;2.08;;
70985;SDS011;58645;43.068;25.610;2023-05-08T07:52:45;4.90;;;1.90;;
70985;SDS011;58645;43.068;25.610;2023-05-08T07:55:11;14.10;;;5.10;;
70985;SDS011;58645;43.068;25.610;2023-05-08T07:57:41;9.88;;;5.15;;
70985;SDS011;58645;43.068;25.610;2023-05-08T08:00:09;10.02;;;3.42;;
70985;SDS011;58645;43.068;25.610;2023-05-08T08:02:36;10.55;;;3.67;;
70985;SDS011;58645;43.068;25.610;2023-05-08T08:05:02;8.35;;;3.58;;
70985;SDS011;58645;43.068;25.610;2023-05-08T08:07:31;6.43;;;3.38;;
70985;SDS011;58645;43.068;25.610;2023-05-08T08:09:57;7.95;;;4.18;;
70985;SDS011;58645;43.068;25.610;2023-05-08T08:12:23;6.75;;;3.33;;
70985;SDS011;58645;43.068;25.610;2023-05-08T08:14:49;9.45;;;3.85;;
70985;SDS011;58645;43.068;25.610;2023-05-08T08:17:15;6.50;;;3.15;;
70985;SDS011;58645;43.068;25.610;2023-05-08T08:19:41;8.63;;;3.50;;
70985;SDS011;58645;43.068;25.610;2023-05-08T08:22:07;4.13;;;2.60;;
70985;SDS011;58645;43.068;25.610;2023-05-08T08:24:33;4.80;;;2.50;;
70985;SDS011;58645;43.068;25.610;2023-05-08T08:26:59;4.03;;;2.28;;
70985;SDS011;58645;43.068;25.610;2023-05-08T08:29:25;3.97;;;2.70;;
70985;SDS011;58645;43.068;25.610;2023-05-08T08:31:51;3.47;;;2.20;;
70985;SDS011;58645;43.068;25.610;2023-05-08T08:34:17;3.50;;;2.00;;
70985;SDS011;58645;43.068;25.610;2023-05-08T08:36:42;5.22;;;2.45;;
70985;SDS011;58645;43.068;25.610;2023-05-08T08:39:08;3.15;;;1.95;;
70985;SDS011;58645;43.068;25.610;2023-05-08T08:41:34;4.45;;;2.40;;
70985;SDS011;58645;43.068;25.610;2023-05-08T08:44:00;3.67;;;2.40;;
70985;SDS011;58645;43.068;25.610;2023-05-08T08:46:26;2.55;;;1.95;;
70985;SDS011;58645;43.068;25.610;2023-05-08T08:48:53;3.88;;;1.98;;
70985;SDS011;58645;43.068;25.610;2023-05-08T08:51:27;3.88;;;2.17;;
70985;SDS011;58645;43.068;25.610;2023-05-08T08:54:03;3.90;;;2.22;;
70985;SDS011;58645;43.068;25.610;2023-05-08T08:59:02;4.70;;;1.73;;
70985;SDS011;58645;43.068;25.610;2023-05-08T09:01:29;4.38;;;2.17;;
70985;SDS011;58645;43.068;25.610;2023-05-08T09:03:58;5.60;;;2.10;;
70985;SDS011;58645;43.068;25.610;2023-05-08T09:06:24;3.38;;;1.92;;
70985;SDS011;58645;43.068;25.610;2023-05-08T09:08:53;3.65;;;2.10;;
70985;SDS011;58645;43.068;25.610;2023-05-08T09:13:49;5.32;;;2.10;;
70985;SDS011;58645;43.068;25.610;2023-05-08T09:16:15;5.38;;;2.38;;
70985;SDS011;58645;43.068;25.610;2023-05-08T09:18:42;5.40;;;2.00;;
70985;SDS011;58645;43.068;25.610;2023-05-08T09:21:07;3.25;;;2.03;;
70985;SDS011;58645;43.068;25.610;2023-05-08T09:23:36;3.33;;;2.38;;
70985;SDS011;58645;43.068;25.610;2023-05-08T09:26:26;5.07;;;2.53;;
70985;SDS011;58645;43.068;25.610;2023-05-08T09:29:17;4.70;;;2.55;;
70985;SDS011;58645;43.068;25.610;2023-05-08T09:31:46;3.55;;;2.28;;
70985;SDS011;58645;43.068;25.610;2023-05-08T09:34:24;4.22;;;2.35;;
70985;SDS011;58645;43.068;25.610;2023-05-08T09:36:55;4.95;;;2.42;;
70985;SDS011;58645;43.068;25.610;2023-05-08T09:39:30;4.20;;;2.25;;
70985;SDS011;58645;43.068;25.610;2023-05-08T09:41:56;4.45;;;2.25;;
70985;SDS011;58645;43.068;25.610;2023-05-08T09:44:23;4.82;;;2.03;;
70985;SDS011;58645;43.068;25.610;2023-05-08T09:46:49;6.90;;;2.33;;
70985;SDS011;58645;43.068;25.610;2023-05-08T09:49:18;4.18;;;2.22;;
70985;SDS011;58645;43.068;25.610;2023-05-08T09:51:50;4.60;;;2.17;;
70985;SDS011;58645;43.068;25.610;2023-05-08T09:54:19;4.15;;;2.13;;
70985;SDS011;58645;43.068;25.610;2023-05-08T09:56:45;3.30;;;1.98;;
70985;SDS011;58645;43.068;25.610;2023-05-08T09:59:21;5.07;;;2.15;;
70985;SDS011;58645;43.068;25.610;2023-05-08T10:01:51;3.65;;;1.60;;
70985;SDS011;58645;43.068;25.610;2023-05-08T10:04:29;2.38;;;1.58;;
70985;SDS011;58645;43.068;25.610;2023-05-08T10:06:59;4.82;;;1.85;;
70985;SDS011;58645;43.068;25.610;2023-05-08T10:09:25;2.65;;;1.67;;
70985;SDS011;58645;43.068;25.610;2023-05-08T10:11:51;2.00;;;1.42;;
70985;SDS011;58645;43.068;25.610;2023-05-08T10:14:18;4.38;;;1.55;;
70985;SDS011;58645;43.068;25.610;2023-05-08T10:16:46;3.75;;;1.58;;
70985;SDS011;58645;43.068;25.610;2023-05-08T10:19:17;2.83;;;1.63;;
70985;SDS011;58645;43.068;25.610;2023-05-08T10:21:48;3.72;;;1.70;;
70985;SDS011;58645;43.068;25.610;2023-05-08T10:24:16;3.70;;;1.60;;
70985;SDS011;58645;43.068;25.610;2023-05-08T10:26:47;3.67;;;1.90;;
70985;SDS011;58645;43.068;25.610;2023-05-08T10:29:24;2.50;;;1.52;;
70985;SDS011;58645;43.068;25.610;2023-05-08T10:31:57;4.43;;;1.77;;
70985;SDS011;58645;43.068;25.610;2023-05-08T10:34:25;2.20;;;1.40;;
70985;SDS011;58645;43.068;25.610;2023-05-08T10:36:52;3.58;;;1.58;;
70985;SDS011;58645;43.068;25.610;2023-05-08T10:39:19;4.32;;;1.63;;
70985;SDS011;58645;43.068;25.610;2023-05-08T10:41:46;2.55;;;1.33;;
70985;SDS011;58645;43.068;25.610;2023-05-08T10:44:13;3.13;;;1.60;;
70985;SDS011;58645;43.068;25.610;2023-05-08T10:47:03;2.80;;;1.55;;
70985;SDS011;58645;43.068;25.610;2023-05-08T10:57:29;3.55;;;1.70;;
70985;SDS011;58645;43.068;25.610;2023-05-08T10:59:55;3.42;;;1.48;;
70985;SDS011;58645;43.068;25.610;2023-05-08T11:02:27;4.53;;;1.60;;
70985;SDS011;58645;43.068;25.610;2023-05-08T11:05:14;3.70;;;1.80;;
70985;SDS011;58645;43.068;25.610;2023-05-08T11:07:56;2.47;;;1.45;;
70985;SDS011;58645;43.068;25.610;2023-05-08T11:10:29;3.60;;;1.55;;
70985;SDS011;58645;43.068;25.610;2023-05-08T11:12:56;5.90;;;1.52;;
70985;SDS011;58645;43.068;25.610;2023-05-08T11:15:36;1.98;;;1.33;;
70985;SDS011;58645;43.068;25.610;2023-05-08T11:18:10;4.07;;;1.80;;
70985;SDS011;58645;43.068;25.610;2023-05-08T11:20:40;4.43;;;1.83;;
70985;SDS011;58645;43.068;25.610;2023-05-08T11:23:20;4.10;;;2.17;;
70985;SDS011;58645;43.068;25.610;2023-05-08T11:26:38;4.57;;;1.58;;
70985;SDS011;58645;43.068;25.610;2023-05-08T11:31:18;7.78;;;1.90;;
70985;SDS011;58645;43.068;25.610;2023-05-08T11:33:44;3.15;;;1.73;;
70985;SDS011;58645;43.068;25.610;2023-05-08T11:36:17;6.18;;;2.05;;
70985;SDS011;58645;43.068;25.610;2023-05-08T11:39:04;4.35;;;1.67;;
70985;SDS011;58645;43.068;25.610;2023-05-08T11:41:39;5.68;;;2.17;;
70985;SDS011;58645;43.068;25.610;2023-05-08T11:46:41;2.60;;;1.83;;
70985;SDS011;58645;43.068;25.610;2023-05-08T11:49:24;3.58;;;2.03;;
70985;SDS011;58645;43.068;25.610;2023-05-08T11:51:53;5.10;;;2.05;;
70985;SDS011;58645;43.068;25.610;2023-05-08T11:54:22;4.18;;;1.77;;
70985;SDS011;58645;43.068;25.610;2023-05-08T11:56:49;4.93;;;2.20;;
70985;SDS011;58645;43.068;25.610;2023-05-08T11:59:18;5.10;;;1.90;;
70985;SDS011;58645;43.068;25.610;2023-05-08T12:01:46;3.65;;;1.90;;
70985;SDS011;58645;43.068;25.610;2023-05-08T12:04:13;4.97;;;2.08;;
70985;SDS011;58645;43.068;25.610;2023-05-08T12:06:40;5.40;;;1.92;;
70985;SDS011;58645;43.068;25.610;2023-05-08T12:09:10;5.18;;;1.83;;
70985;SDS011;58645;43.068;25.610;2023-05-08T12:11:41;4.55;;;1.92;;
70985;SDS011;58645;43.068;25.610;2023-05-08T12:14:09;4.65;;;2.10;;
70985;SDS011;58645;43.068;25.610;2023-05-08T12:16:36;3.80;;;1.83;;
70985;SDS011;58645;43.068;25.610;2023-05-08T12:19:03;4.38;;;1.90;;
70985;SDS011;58645;43.068;25.610;2023-05-08T12:21:34;4.63;;;2.08;;
70985;SDS011;58645;43.068;25.610;2023-05-08T12:24:03;5.18;;;1.92;;
70985;SDS011;58645;43.068;25.610;2023-05-08T12:26:35;5.72;;;2.22;;
70985;SDS011;58645;43.068;25.610;2023-05-08T12:29:04;9.77;;;2.30;;
70985;SDS011;58645;43.068;25.610;2023-05-08T12:31:30;6.75;;;1.98;;
70985;SDS011;58645;43.068;25.610;2023-05-08T12:33:56;7.22;;;2.38;;
70985;SDS011;58645;43.068;25.610;2023-05-08T12:36:23;9.30;;;2.10;;
70985;SDS011;58645;43.068;25.610;2023-05-08T12:38:49;4.78;;;2.25;;
70985;SDS011;58645;43.068;25.610;2023-05-08T12:41:21;6.07;;;2.15;;
70985;SDS011;58645;43.068;25.610;2023-05-08T12:43:48;6.57;;;2.15;;
70985;SDS011;58645;43.068;25.610;2023-05-08T12:46:14;7.45;;;2.17;;
70985;SDS011;58645;43.068;25.610;2023-05-08T12:48:41;5.20;;;2.10;;
70985;SDS011;58645;43.068;25.610;2023-05-08T12:53:34;6.88;;;2.35;;
70985;SDS011;58645;43.068;25.610;2023-05-08T12:56:02;7.70;;;2.33;;
70985;SDS011;58645;43.068;25.610;2023-05-08T12:58:29;4.05;;;2.10;;
70985;SDS011;58645;43.068;25.610;2023-05-08T13:01:07;4.72;;;2.45;;
70985;SDS011;58645;43.068;25.610;2023-05-08T13:03:37;4.93;;;2.30;;
70985;SDS011;58645;43.068;25.610;2023-05-08T13:06:03;3.15;;;2.22;;
70985;SDS011;58645;43.068;25.610;2023-05-08T13:08:33;7.93;;;2.30;;
70985;SDS011;58645;43.068;25.610;2023-05-08T13:11:01;6.00;;;2.20;;
70985;SDS011;58645;43.068;25.610;2023-05-08T13:13:29;6.10;;;2.13;;
70985;SDS011;58645;43.068;25.610;2023-05-08T13:15:57;3.65;;;2.38;;
70985;SDS011;58645;43.068;25.610;2023-05-08T13:18:26;6.35;;;2.25;;
70985;SDS011;58645;43.068;25.610;2023-05-08T13:20:55;6.38;;;2.25;;
70985;SDS011;58645;43.068;25.610;2023-05-08T13:23:21;2.83;;;1.83;;
70985;SDS011;58645;43.068;25.610;2023-05-08T13:25:47;5.43;;;2.25;;
70985;SDS011;58645;43.068;25.610;2023-05-08T13:28:14;7.75;;;2.30;;
70985;SDS011;58645;43.068;25.610;2023-05-08T13:30:39;3.80;;;2.33;;
70985;SDS011;58645;43.068;25.610;2023-05-08T13:33:05;6.00;;;2.47;;
70985;SDS011;58645;43.068;25.610;2023-05-08T13:35:32;5.85;;;2.38;;
70985;SDS011;58645;43.068;25.610;2023-05-08T13:37:58;2.80;;;2.33;;
70985;SDS011;58645;43.068;25.610;2023-05-08T13:42:50;3.75;;;2.30;;
70985;SDS011;58645;43.068;25.610;2023-05-08T13:47:45;5.65;;;2.22;;
70985;SDS011;58645;43.068;25.610;2023-05-08T13:50:12;3.22;;;2.22;;
70985;SDS011;58645;43.068;25.610;2023-05-08T13:52:40;3.75;;;2.22;;
70985;SDS011;58645;43.068;25.610;2023-05-08T13:55:06;3.28;;;2.05;;
70985;SDS011;58645;43.068;25.610;2023-05-08T13:57:34;5.97;;;2.15;;
70985;SDS011;58645;43.068;25.610;2023-05-08T14:00:00;7.07;;;2.67;;
70985;SDS011;58645;43.068;25.610;2023-05-08T14:04:52;7.43;;;2.63;;
70985;SDS011;58645;43.068;25.610;2023-05-08T14:07:18;3.40;;;2.47;;
70985;SDS011;58645;43.068;25.610;2023-05-08T14:09:44;4.78;;;2.40;;
70985;SDS011;58645;43.068;25.610;2023-05-08T14:14:36;4.78;;;2.35;;
70985;SDS011;58645;43.068;25.610;2023-05-08T14:17:05;5.45;;;2.30;;
70985;SDS011;58645;43.068;25.610;2023-05-08T14:19:32;3.85;;;2.30;;
70985;SDS011;58645;43.068;25.610;2023-05-08T14:24:23;3.85;;;2.53;;
70985;SDS011;58645;43.068;25.610;2023-05-08T14:26:49;4.85;;;2.65;;
70985;SDS011;58645;43.068;25.610;2023-05-08T14:29:15;10.93;;;3.13;;
70985;SDS011;58645;43.068;25.610;2023-05-08T14:31:43;9.63;;;4.00;;
70985;SDS011;58645;43.068;25.610;2023-05-08T14:34:09;10.23;;;3.70;;
70985;SDS011;58645;43.068;25.610;2023-05-08T14:36:34;7.90;;;3.83;;
70985;SDS011;58645;43.068;25.610;2023-05-08T14:39:00;7.85;;;3.70;;
70985;SDS011;58645;43.068;25.610;2023-05-08T14:41:29;5.63;;;3.78;;
70985;SDS011;58645;43.068;25.610;2023-05-08T14:43:56;7.30;;;4.30;;
70985;SDS011;58645;43.068;25.610;2023-05-08T14:48:48;7.95;;;4.03;;
70985;SDS011;58645;43.068;25.610;2023-05-08T14:51:14;7.32;;;4.53;;
70985;SDS011;58645;43.068;25.610;2023-05-08T14:53:40;6.20;;;4.00;;
70985;SDS011;58645;43.068;25.610;2023-05-08T14:56:06;5.43;;;3.95;;
70985;SDS011;58645;43.068;25.610;2023-05-08T14:58:32;8.32;;;3.67;;
70985;SDS011;58645;43.068;25.610;2023-05-08T15:00:58;7.65;;;4.13;;
70985;SDS011;58645;43.068;25.610;2023-05-08T15:03:24;9.45;;;4.10;;
70985;SDS011;58645;43.068;25.610;2023-05-08T15:05:49;6.00;;;4.00;;
70985;SDS011;58645;43.068;25.610;2023-05-08T15:08:15;8.43;;;4.90;;
70985;SDS011;58645;43.068;25.610;2023-05-08T15:10:41;6.65;;;4.13;;
70985;SDS011;58645;43.068;25.610;2023-05-08T15:13:08;7.55;;;4.70;;
70985;SDS011;58645;43.068;25.610;2023-05-08T15:15:34;9.77;;;4.60;;
70985;SDS011;58645;43.068;25.610;2023-05-08T15:17:59;8.63;;;4.93;;
70985;SDS011;58645;43.068;25.610;2023-05-08T15:20:25;7.70;;;5.65;;
70985;SDS011;58645;43.068;25.610;2023-05-08T15:22:51;9.65;;;4.95;;
70985;SDS011;58645;43.068;25.610;2023-05-08T15:25:18;9.57;;;5.85;;
70985;SDS011;58645;43.068;25.610;2023-05-08T15:27:44;8.07;;;5.15;;
70985;SDS011;58645;43.068;25.610;2023-05-08T15:30:10;8.95;;;5.70;;
70985;SDS011;58645;43.068;25.610;2023-05-08T15:32:36;12.00;;;5.72;;
70985;SDS011;58645;43.068;25.610;2023-05-08T15:35:04;11.80;;;5.68;;
70985;SDS011;58645;43.068;25.610;2023-05-08T15:37:30;10.48;;;6.22;;
70985;SDS011;58645;43.068;25.610;2023-05-08T15:39:56;9.05;;;5.15;;
70985;SDS011;58645;43.068;25.610;2023-05-08T15:42:22;9.65;;;5.45;;
70985;SDS011;58645;43.068;25.610;2023-05-08T15:44:47;7.20;;;5.18;;
70985;SDS011;58645;43.068;25.610;2023-05-08T15:47:13;9.30;;;6.07;;
70985;SDS011;58645;43.068;25.610;2023-05-08T15:49:39;9.32;;;5.43;;
70985;SDS011;58645;43.068;25.610;2023-05-08T15:52:05;9.55;;;5.90;;
70985;SDS011;58645;43.068;25.610;2023-05-08T15:54:30;10.00;;;5.35;;
70985;SDS011;58645;43.068;25.610;2023-05-08T15:56:56;10.98;;;5.72;;
70985;SDS011;58645;43.068;25.610;2023-05-08T15:59:22;9.93;;;5.68;;
70985;SDS011;58645;43.068;25.610;2023-05-08T16:01:47;9.40;;;5.90;;
70985;SDS011;58645;43.068;25.610;2023-05-08T16:04:13;11.77;;;7.22;;